Time;durP1;ratioP1;P1;durP2;ratioP2;P2;SDS_P1;SDS_P2;PMS_P1;PMS_P2;Temp;Humidity;BMP_temperature;BMP_pressure;BME280_temperature;BME280_humidity;BME280_pressure;Samples;Min_cycle;Max_cycle;Signal;HPM_P1;HPM_P2
2021/04/11 00:01:01;;;;;;;3.10;2.70;;;5.00;84.60;;;;;;4965994;28;20227;-91
2021/04/11 00:03:28;;;;;;;3.63;2.90;;;5.00;84.60;;;;;;4957282;28;20389;-90
2021/04/11 00:05:54;;;;;;;3.25;2.70;;;5.00;84.50;;;;;;4971321;28;20023;-90
2021/04/11 00:08:21;;;;;;;2.80;2.50;;;4.90;84.50;;;;;;4965795;28;20026;-91
2021/04/11 00:10:50;;;;;;;4.18;3.20;;;4.90;84.60;;;;;;4973681;28;20037;-91
2021/04/11 00:13:42;;;;;;;3.28;2.80;;;4.90;84.60;;;;;;4956467;28;20027;-91
2021/04/11 00:16:08;;;;;;;2.95;2.65;;;4.90;84.60;;;;;;4951946;28;20023;-91
2021/04/11 00:18:34;;;;;;;4.43;3.17;;;4.90;84.60;;;;;;4961307;28;20398;-91
2021/04/11 00:21:03;;;;;;;2.92;2.55;;;4.90;84.60;;;;;;4966664;28;20018;-90
2021/04/11 00:23:29;;;;;;;4.53;3.22;;;4.90;84.60;;;;;;4962686;28;20033;-91
2021/04/11 00:25:55;;;;;;;2.92;2.50;;;4.90;84.60;;;;;;4952935;28;20125;-90
2021/04/11 00:28:21;;;;;;;4.18;3.30;;;4.90;84.60;;;;;;4953567;29;20024;-90
2021/04/11 00:30:47;;;;;;;3.28;2.85;;;4.90;85.20;;;;;;4955302;28;20030;-90
2021/04/11 00:33:27;;;;;;;3.05;2.75;;;4.90;85.30;;;;;;4957032;28;20389;-89
2021/04/11 00:36:24;;;;;;;2.60;2.35;;;4.80;84.60;;;;;;4943098;28;20123;-90
2021/04/11 00:38:49;;;;;;;3.47;3.00;;;4.80;84.60;;;;;;4953341;28;20082;-90
2021/04/11 00:41:32;;;;;;;3.88;3.13;;;4.80;84.60;;;;;;4969028;28;20027;-88
2021/04/11 00:43:58;;;;;;;2.88;2.42;;;4.80;84.60;;;;;;4958138;28;20027;-90
2021/04/11 00:46:45;;;;;;;3.00;2.70;;;4.80;84.60;;;;;;4960053;28;20473;-90
2021/04/11 00:49:34;;;;;;;4.20;2.78;;;4.80;84.60;;;;;;4972590;28;20038;-89
2021/04/11 00:52:07;;;;;;;3.35;2.97;;;4.80;84.60;;;;;;4951093;28;20060;-89
2021/04/11 00:54:33;;;;;;;3.00;2.70;;;4.80;84.60;;;;;;4967592;28;20441;-88
2021/04/11 00:57:00;;;;;;;3.63;3.10;;;4.70;84.60;;;;;;4961724;28;20031;-89
2021/04/11 00:59:26;;;;;;;2.80;2.50;;;4.70;84.50;;;;;;4956681;28;20057;-89
2021/04/11 01:01:52;;;;;;;4.03;3.38;;;4.70;84.50;;;;;;4983883;28;20031;-89
2021/04/11 01:04:18;;;;;;;2.72;2.40;;;4.70;84.50;;;;;;4958970;28;20359;-88
2021/04/11 01:06:52;;;;;;;3.38;2.97;;;4.70;84.50;;;;;;4960378;28;20031;-90
2021/04/11 01:09:29;;;;;;;3.60;2.90;;;4.70;84.40;;;;;;4959993;28;20386;-89
2021/04/11 01:11:57;;;;;;;3.40;2.80;;;4.70;84.40;;;;;;4962947;28;20031;-89
2021/04/11 01:14:23;;;;;;;4.40;3.85;;;4.70;84.50;;;;;;4964270;28;20022;-88
2021/04/11 01:16:49;;;;;;;4.03;2.95;;;4.70;84.50;;;;;;4970172;28;20066;-86
2021/04/11 01:19:26;;;;;;;3.30;2.75;;;4.60;84.40;;;;;;4950919;28;20089;-90
2021/04/11 01:22:09;;;;;;;5.93;4.47;;;4.60;84.60;;;;;;4953959;28;20382;-90
2021/04/11 01:24:43;;;;;;;4.22;3.65;;;4.60;84.50;;;;;;4967797;28;20027;-89
2021/04/11 01:27:12;;;;;;;4.28;3.50;;;4.60;84.40;;;;;;4934678;29;20032;-90
2021/04/11 01:29:39;;;;;;;3.80;3.10;;;4.50;84.40;;;;;;4956639;28;20031;-89
2021/04/11 01:32:07;;;;;;;3.63;2.85;;;4.50;84.60;;;;;;4952901;28;20035;-90
2021/04/11 01:34:32;;;;;;;3.55;3.05;;;4.50;84.60;;;;;;4955556;28;20027;-89
2021/04/11 01:37:00;;;;;;;4.25;3.42;;;4.50;84.70;;;;;;4961982;28;20059;-89
2021/04/11 01:39:35;;;;;;;4.22;3.50;;;4.50;84.70;;;;;;4957628;28;20054;-87
2021/04/11 01:42:01;;;;;;;3.53;3.00;;;4.50;84.70;;;;;;4935030;29;20569;-92
2021/04/11 01:44:32;;;;;;;5.60;2.80;;;4.50;84.60;;;;;;4960202;28;20106;-91
2021/04/11 01:46:58;;;;;;;3.83;3.10;;;4.50;84.60;;;;;;4956554;28;20015;-91
2021/04/11 01:49:25;;;;;;;4.78;3.60;;;4.50;84.50;;;;;;4956058;28;20102;-91
2021/04/11 01:51:57;;;;;;;3.78;2.75;;;4.50;84.40;;;;;;4972580;28;20102;-90
2021/04/11 01:54:26;;;;;;;3.55;2.75;;;4.60;84.50;;;;;;4961232;28;20027;-90
2021/04/11 01:56:52;;;;;;;3.10;2.80;;;4.60;84.50;;;;;;4948320;28;20023;-89
2021/04/11 01:59:25;;;;;;;2.83;2.53;;;4.50;84.40;;;;;;4944715;28;20039;-89
2021/04/11 02:01:52;;;;;;;3.40;2.75;;;4.50;84.50;;;;;;4960589;28;20138;-91
2021/04/11 02:04:18;;;;;;;3.95;3.17;;;4.60;84.40;;;;;;4973061;28;20027;-89
2021/04/11 02:06:47;;;;;;;3.70;2.92;;;4.60;84.40;;;;;;4969728;28;20471;-90
2021/04/11 02:09:23;;;;;;;4.07;2.80;;;4.60;84.40;;;;;;4966710;28;20023;-88
2021/04/11 02:11:49;;;;;;;8.07;3.50;;;4.50;84.40;;;;;;4961579;28;20031;-90
2021/04/11 02:14:15;;;;;;;3.47;2.58;;;4.60;84.40;;;;;;4956122;28;20102;-89
2021/04/11 02:16:42;;;;;;;4.55;3.20;;;4.60;84.40;;;;;;4965257;28;20481;-89
2021/04/11 02:19:12;;;;;;;4.50;3.28;;;4.60;84.30;;;;;;4963736;28;20039;-88
2021/04/11 02:21:38;;;;;;;4.10;3.35;;;4.60;84.30;;;;;;4989224;28;20019;-89
2021/04/11 02:24:08;;;;;;;3.72;2.88;;;4.60;84.30;;;;;;4972559;28;20050;-88
2021/04/11 02:26:35;;;;;;;3.33;2.70;;;4.60;84.40;;;;;;4972798;28;20027;-87
2021/04/11 02:29:04;;;;;;;4.40;3.80;;;4.60;84.40;;;;;;4966554;28;20035;-88
2021/04/11 02:31:30;;;;;;;4.40;3.38;;;4.60;84.50;;;;;;4964160;28;20574;-88
2021/04/11 02:34:03;;;;;;;4.95;3.38;;;4.60;84.30;;;;;;4974030;28;20034;-88
2021/04/11 02:36:37;;;;;;;3.85;2.88;;;4.70;84.40;;;;;;4962651;28;20023;-88
2021/04/11 02:39:11;;;;;;;3.78;3.05;;;4.60;84.30;;;;;;4956196;28;20032;-88
2021/04/11 02:41:38;;;;;;;3.72;2.53;;;4.60;84.30;;;;;;4957670;28;20147;-88
2021/04/11 02:44:04;;;;;;;3.35;2.80;;;4.70;84.30;;;;;;4954297;28;20157;-90
2021/04/11 02:46:33;;;;;;;3.92;3.35;;;4.70;84.30;;;;;;4952408;28;20075;-90
2021/04/11 02:48:58;;;;;;;4.05;3.25;;;4.70;84.30;;;;;;4969199;28;20398;-88
2021/04/11 02:51:27;;;;;;;3.80;2.80;;;4.70;84.80;;;;;;4964031;28;20022;-89
2021/04/11 02:53:55;;;;;;;3.15;2.28;;;4.70;84.20;;;;;;4976218;28;20026;-89
2021/04/11 02:56:21;;;;;;;2.55;2.35;;;4.80;84.30;;;;;;4973828;28;20489;-89
2021/04/11 02:58:47;;;;;;;3.13;2.20;;;4.70;84.30;;;;;;4974260;28;20035;-87
2021/04/11 03:01:17;;;;;;;2.50;2.30;;;4.80;84.20;;;;;;4956455;28;20102;-88
2021/04/11 03:03:43;;;;;;;2.38;2.17;;;4.80;84.20;;;;;;4956083;28;20031;-92
2021/04/11 03:06:15;;;;;;;2.47;2.28;;;4.80;84.20;;;;;;4958139;28;20019;-92
2021/04/11 03:08:43;;;;;;;2.95;2.45;;;4.80;84.20;;;;;;4974640;28;20493;-91
2021/04/11 03:11:23;;;;;;;2.35;2.15;;;4.80;84.20;;;;;;4972087;28;20119;-92
2021/04/11 03:13:49;;;;;;;1.98;1.88;;;4.70;84.20;;;;;;4965241;28;20027;-89
2021/04/11 03:16:14;;;;;;;1.80;1.60;;;4.80;84.30;;;;;;4989255;28;20031;-89
2021/04/11 03:18:41;;;;;;;1.65;1.50;;;4.70;84.20;;;;;;4966886;28;20499;-89
2021/04/11 03:21:08;;;;;;;2.15;1.95;;;4.80;84.30;;;;;;4954990;28;20010;-90
2021/04/11 03:23:34;;;;;;;2.03;1.77;;;4.80;84.80;;;;;;4955075;28;20027;-89
2021/04/11 03:26:15;;;;;;;1.40;1.30;;;4.80;84.30;;;;;;4953450;28;20035;-90
2021/04/11 03:28:46;;;;;;;1.27;1.10;;;4.80;84.30;;;;;;4960931;28;20101;-89
2021/04/11 03:31:18;;;;;;;1.83;1.63;;;4.80;84.30;;;;;;4961160;28;20058;-89
2021/04/11 03:33:48;;;;;;;1.40;1.30;;;4.80;84.30;;;;;;4950077;28;20151;-89
2021/04/11 03:36:15;;;;;;;2.20;1.35;;;4.80;84.90;;;;;;4971979;28;21458;-91
2021/04/11 03:38:42;;;;;;;1.10;1.00;;;4.70;84.20;;;;;;4946141;28;20039;-90
2021/04/11 03:41:09;;;;;;;1.27;1.17;;;4.80;84.30;;;;;;4967573;28;20020;-89
2021/04/11 03:43:40;;;;;;;1.30;1.20;;;4.70;84.20;;;;;;4974535;28;20023;-90
2021/04/11 03:46:26;;;;;;;1.25;1.15;;;4.80;84.20;;;;;;4937126;28;20566;-89
2021/04/11 03:49:04;;;;;;;1.30;1.20;;;4.80;84.30;;;;;;4947648;28;20031;-89
2021/04/11 03:51:32;;;;;;;1.27;1.17;;;4.80;84.20;;;;;;4954679;28;20371;-89
2021/04/11 03:54:10;;;;;;;1.33;1.23;;;4.80;84.20;;;;;;4970370;28;20027;-87
2021/04/11 03:56:41;;;;;;;1.20;1.10;;;4.70;84.30;;;;;;4955188;28;20015;-86
2021/04/11 03:59:08;;;;;;;1.50;1.40;;;4.80;84.30;;;;;;4966935;28;20030;-89
2021/04/11 04:01:45;;;;;;;1.45;1.30;;;4.70;84.20;;;;;;4958978;28;20098;-89
2021/04/11 04:04:16;;;;;;;1.30;1.23;;;4.70;84.40;;;;;;4960068;28;20031;-89
2021/04/11 04:07:00;;;;;;;1.33;1.23;;;4.80;84.30;;;;;;4966405;28;20154;-88
2021/04/11 04:09:26;;;;;;;1.60;1.50;;;4.80;84.20;;;;;;4960668;28;20079;-89
2021/04/11 04:12:16;;;;;;;1.33;1.23;;;4.80;84.10;;;;;;4959055;28;20050;-89
2021/04/11 04:14:55;;;;;;;1.25;1.15;;;4.80;84.10;;;;;;4981535;28;20031;-88
2021/04/11 04:17:44;;;;;;;1.52;1.42;;;4.80;84.20;;;;;;4963065;28;20110;-89
2021/04/11 04:20:23;;;;;;;1.17;1.17;;;4.70;84.20;;;;;;4948573;28;20047;-87
2021/04/11 04:23:07;;;;;;;1.38;1.27;;;4.80;84.30;;;;;;4952186;28;20024;-86
2021/04/11 04:25:53;;;;;;;1.42;1.33;;;4.80;84.30;;;;;;4956039;28;20113;-84
2021/04/11 04:28:39;;;;;;;1.40;1.30;;;4.80;84.30;;;;;;4961069;28;20035;-90
2021/04/11 04:31:19;;;;;;;1.70;1.33;;;4.80;84.30;;;;;;4954142;28;20039;-87
2021/04/11 04:34:04;;;;;;;1.10;1.00;;;4.80;84.30;;;;;;4959352;28;20039;-88
2021/04/11 04:36:29;;;;;;;1.63;1.42;;;4.80;84.30;;;;;;4959349;28;20034;-88
2021/04/11 04:39:18;;;;;;;1.40;1.30;;;4.90;84.20;;;;;;4969643;28;20066;-89
2021/04/11 04:42:05;;;;;;;1.85;1.42;;;4.90;84.20;;;;;;4961901;28;20031;-88
2021/04/11 04:44:56;;;;;;;2.10;1.73;;;4.90;84.30;;;;;;4961355;28;20065;-87
2021/04/11 04:47:37;;;;;;;1.55;1.45;;;4.90;84.30;;;;;;4958116;28;20027;-87
2021/04/11 04:50:25;;;;;;;1.95;1.60;;;4.90;84.20;;;;;;4958197;28;20400;-87
2021/04/11 04:53:11;;;;;;;2.20;1.67;;;4.90;84.10;;;;;;4956572;28;20041;-87
2021/04/11 04:55:39;;;;;;;3.17;2.17;;;4.90;84.10;;;;;;4953588;28;20030;-89
2021/04/11 04:58:19;;;;;;;3.70;2.08;;;4.90;84.20;;;;;;4964796;28;20783;-93
2021/04/11 05:00:51;;;;;;;2.22;1.80;;;4.90;84.20;;;;;;4955873;28;20046;-88
2021/04/11 05:03:25;;;;;;;2.10;1.50;;;4.90;84.10;;;;;;4953027;28;20046;-87
2021/04/11 05:05:54;;;;;;;1.75;1.48;;;4.90;84.20;;;;;;4961945;28;20069;-90
2021/04/11 05:08:25;;;;;;;2.00;1.60;;;4.90;84.10;;;;;;4985863;28;20039;-88
2021/04/11 05:11:12;;;;;;;1.77;1.40;;;4.90;84.10;;;;;;4964367;28;20114;-88
2021/04/11 05:13:44;;;;;;;1.50;1.40;;;5.00;84.30;;;;;;4969141;28;20028;-87
2021/04/11 05:16:35;;;;;;;1.67;1.58;;;5.00;84.10;;;;;;4953507;28;20019;-88
2021/04/11 05:19:11;;;;;;;1.40;1.30;;;5.00;84.10;;;;;;4966833;28;20133;-88
2021/04/11 05:21:45;;;;;;;2.08;1.27;;;5.00;84.10;;;;;;4957145;28;20050;-88
2021/04/11 05:24:16;;;;;;;1.80;1.70;;;5.00;84.10;;;;;;4971669;28;20026;-87
2021/04/11 05:26:48;;;;;;;1.58;1.48;;;5.00;84.10;;;;;;4955236;28;20596;-88
2021/04/11 05:29:31;;;;;;;1.70;1.60;;;5.00;84.10;;;;;;4956005;28;20035;-88
2021/04/11 05:31:57;;;;;;;;;;;5.00;84.10;;;;;;4954052;28;20023;-87
2021/04/11 05:34:26;;;;;;;1.70;1.58;;;5.00;84.00;;;;;;4964252;28;20068;-88
2021/04/11 05:37:01;;;;;;;1.80;1.50;;;4.90;84.10;;;;;;4967142;28;20039;-88
2021/04/11 05:39:46;;;;;;;1.85;1.50;;;4.90;84.10;;;;;;4956203;28;20122;-87
2021/04/11 05:42:51;;;;;;;1.60;1.50;;;5.00;84.20;;;;;;4970142;28;20039;-87
2021/04/11 05:45:23;;;;;;;1.30;1.20;;;5.00;84.10;;;;;;4958873;28;20046;-88
2021/04/11 05:48:13;;;;;;;1.75;1.40;;;5.00;84.00;;;;;;4971983;28;20031;-87
2021/04/11 05:50:56;;;;;;;1.20;1.10;;;5.00;84.00;;;;;;4970315;28;20027;-90
2021/04/11 05:53:41;;;;;;;1.40;1.30;;;5.00;83.90;;;;;;4957238;28;20030;-90
2021/04/11 05:56:19;;;;;;;1.38;1.25;;;5.00;83.80;;;;;;4969301;28;20059;-89
2021/04/11 05:58:53;;;;;;;1.05;0.93;;;5.00;83.70;;;;;;4949756;28;20200;-89
2021/04/11 06:01:28;;;;;;;1.15;0.98;;;5.10;84.40;;;;;;4974906;28;20034;-89
2021/04/11 06:04:03;;;;;;;0.90;0.90;;;5.20;83.70;;;;;;4968312;28;20046;-88
2021/04/11 06:06:57;;;;;;;1.00;1.00;;;5.20;83.60;;;;;;4959181;28;20089;-88
2021/04/11 06:09:48;;;;;;;1.60;1.20;;;5.20;84.10;;;;;;4971428;28;20042;-90
2021/04/11 06:12:30;;;;;;;1.40;1.30;;;5.20;83.50;;;;;;4972013;28;20018;-86
2021/04/11 06:15:05;;;;;;;0.95;0.95;;;5.20;83.50;;;;;;4961760;28;20114;-86
2021/04/11 06:17:31;;;;;;;0.98;0.90;;;5.10;83.50;;;;;;4956474;28;20031;-88
2021/04/11 06:19:57;;;;;;;1.30;1.20;;;5.20;83.50;;;;;;4968726;28;20041;-87
2021/04/11 06:22:26;;;;;;;1.60;1.30;;;5.20;83.50;;;;;;4970859;28;20394;-88
2021/04/11 06:25:05;;;;;;;1.30;1.20;;;5.10;83.50;;;;;;4964201;28;20058;-87
2021/04/11 06:27:39;;;;;;;1.13;1.02;;;5.10;83.50;;;;;;4964614;28;20684;-87
2021/04/11 06:30:31;;;;;;;1.40;1.30;;;5.20;83.40;;;;;;4965643;28;20439;-88
2021/04/11 06:33:03;;;;;;;1.45;1.15;;;5.20;83.30;;;;;;4956836;28;20022;-87
2021/04/11 06:35:47;;;;;;;1.80;1.10;;;5.30;83.20;;;;;;4966077;28;20039;-88
2021/04/11 06:38:18;;;;;;;1.20;0.98;;;5.30;83.10;;;;;;4960940;28;20035;-86
2021/04/11 06:41:00;;;;;;;0.95;0.93;;;5.40;82.90;;;;;;4964191;28;20038;-88
2021/04/11 06:43:45;;;;;;;1.20;1.10;;;5.40;82.80;;;;;;4959937;28;20034;-88
2021/04/11 06:47:00;;;;;;;1.40;1.00;;;5.40;82.70;;;;;;4965418;28;20027;-87
2021/04/11 06:49:47;;;;;;;0.95;0.95;;;5.40;82.60;;;;;;4948571;28;20057;-91
2021/04/11 06:52:25;;;;;;;1.17;0.90;;;5.40;82.50;;;;;;4960765;28;20030;-87
2021/04/11 06:55:21;;;;;;;1.23;1.10;;;5.40;82.50;;;;;;4966440;28;20053;-90
2021/04/11 06:57:55;;;;;;;1.30;1.00;;;5.30;82.40;;;;;;4948029;28;20050;-87
2021/04/11 07:00:26;;;;;;;1.98;1.05;;;5.40;82.30;;;;;;4962344;28;20026;-89
2021/04/11 07:03:19;;;;;;;4.82;1.45;;;5.40;82.20;;;;;;4958382;28;20031;-89
2021/04/11 07:05:57;;;;;;;1.20;1.10;;;5.50;82.20;;;;;;4960522;28;20032;-89
2021/04/11 07:08:41;;;;;;;1.63;0.88;;;5.50;82.10;;;;;;4959718;28;20019;-88
2021/04/11 07:11:30;;;;;;;1.50;1.10;;;5.60;81.80;;;;;;4962691;28;20065;-89
2021/04/11 07:14:21;;;;;;;1.02;0.90;;;5.60;81.70;;;;;;4955659;28;20478;-90
2021/04/11 07:17:25;;;;;;;1.52;0.98;;;5.70;81.60;;;;;;4952435;28;20038;-87
2021/04/11 07:20:29;;;;;;;1.63;1.38;;;5.70;81.40;;;;;;4957103;28;20039;-91
2021/04/11 07:23:03;;;;;;;1.23;1.00;;;5.60;81.10;;;;;;4959063;28;20042;-92
2021/04/11 07:25:57;;;;;;;3.13;1.10;;;5.70;81.10;;;;;;4944219;28;20467;-90
2021/04/11 07:28:38;;;;;;;1.35;0.98;;;5.70;81.00;;;;;;4948639;28;20478;-87
2021/04/11 07:31:17;;;;;;;1.83;0.90;;;5.90;80.80;;;;;;4955033;28;20042;-87
2021/04/11 07:33:58;;;;;;;1.45;1.10;;;6.30;80.60;;;;;;4961413;28;20132;-88
2021/04/11 07:36:48;;;;;;;1.55;1.10;;;6.40;79.30;;;;;;4953938;28;20023;-88
2021/04/11 07:39:19;;;;;;;1.73;1.15;;;6.30;79.00;;;;;;4949202;28;20134;-88
2021/04/11 07:42:03;;;;;;;1.90;1.25;;;6.20;79.20;;;;;;4955792;28;20066;-87
2021/04/11 07:44:57;;;;;;;2.05;1.30;;;6.10;79.40;;;;;;4962560;28;20026;-90
2021/04/11 07:47:43;;;;;;;1.58;1.48;;;6.00;79.60;;;;;;4963977;28;20689;-93
2021/04/11 07:50:08;;;;;;;2.78;1.30;;;5.90;79.80;;;;;;4949935;28;20524;-91
2021/04/11 07:52:40;;;;;;;2.65;1.50;;;5.90;79.90;;;;;;4978052;28;20035;-91
2021/04/11 07:55:15;;;;;;;2.13;1.10;;;5.80;80.00;;;;;;4954249;28;20033;-90
2021/04/11 07:57:57;;;;;;;1.85;1.48;;;5.80;80.20;;;;;;4955826;28;20041;-90
2021/04/11 08:03:18;;;;;;;2.42;1.23;;;5.80;80.20;;;;;;5730994;23;20025;-96
2021/04/11 08:06:23;;;;;;;2.58;1.45;;;5.80;80.20;;;;;;4944352;28;20156;-92
2021/04/11 08:09:36;;;;;;;3.17;1.60;;;5.80;80.20;;;;;;4945840;29;20432;-91
2021/04/11 08:12:21;;;;;;;1.98;1.35;;;5.80;80.20;;;;;;4942316;29;20059;-90
2021/04/11 08:15:38;;;;;;;1.50;1.25;;;5.80;80.10;;;;;;4960103;28;20035;-90
2021/04/11 08:18:20;;;;;;;1.55;1.15;;;5.80;80.10;;;;;;4939079;28;20051;-92
2021/04/11 08:21:19;;;;;;;2.00;1.50;;;5.80;80.00;;;;;;4939733;29;20063;-92
2021/04/11 08:24:42;;;;;;;1.73;1.10;;;5.70;80.10;;;;;;4938883;29;20487;-92
2021/04/11 08:27:29;;;;;;;4.00;1.55;;;5.80;80.10;;;;;;4939259;29;20094;-91
2021/04/11 08:30:16;;;;;;;1.67;1.30;;;5.80;79.90;;;;;;4948933;28;20179;-92
2021/04/11 08:33:00;;;;;;;2.53;1.15;;;5.80;79.80;;;;;;4951769;28;20027;-90
2021/04/11 08:35:44;;;;;;;2.03;1.30;;;5.90;80.20;;;;;;4944343;28;20075;-91
2021/04/11 08:38:35;;;;;;;3.95;1.30;;;5.80;79.60;;;;;;4941543;29;20510;-91
2021/04/11 08:41:20;;;;;;;1.50;1.05;;;5.90;79.60;;;;;;4944836;28;20046;-92
2021/04/11 08:44:21;;;;;;;1.10;1.00;;;6.00;79.40;;;;;;4953134;28;20095;-91
2021/04/11 08:46:55;;;;;;;1.55;1.13;;;6.10;79.20;;;;;;4936712;28;20466;-92
2021/04/11 08:49:53;;;;;;;0.82;0.82;;;6.20;79.00;;;;;;4943571;29;20027;-91
2021/04/11 08:52:39;;;;;;;2.80;1.20;;;6.40;78.90;;;;;;4958996;28;20031;-91
2021/04/11 08:55:38;;;;;;;1.30;1.20;;;6.50;78.50;;;;;;4939748;28;20896;-92
2021/04/11 08:58:31;;;;;;;1.70;1.10;;;6.60;78.10;;;;;;4931558;29;20636;-92
2021/04/11 09:01:17;;;;;;;2.17;1.10;;;6.60;78.00;;;;;;4941162;28;20074;-92
2021/04/11 09:03:56;;;;;;;1.85;0.95;;;6.60;77.90;;;;;;4951952;28;20079;-92
2021/04/11 09:06:22;;;;;;;1.90;1.17;;;6.70;77.90;;;;;;4935211;29;20047;-93
2021/04/11 09:09:26;;;;;;;1.85;1.00;;;6.60;77.60;;;;;;4946032;29;20023;-89
2021/04/11 09:12:14;;;;;;;1.90;1.17;;;6.50;77.60;;;;;;4957415;28;20032;-90
2021/04/11 09:15:06;;;;;;;1.33;0.95;;;6.50;77.50;;;;;;4950678;28;20036;-91
2021/04/11 09:17:59;;;;;;;1.75;1.00;;;6.60;77.50;;;;;;4936668;28;20052;-92
2021/04/11 09:20:47;;;;;;;1.30;0.90;;;6.60;77.40;;;;;;4952625;28;20050;-88
2021/04/11 09:23:34;;;;;;;2.35;1.10;;;6.70;77.30;;;;;;4969030;28;20035;-91
2021/04/11 09:26:14;;;;;;;1.30;1.00;;;6.80;77.10;;;;;;4930401;29;20407;-94
2021/04/11 09:29:08;;;;;;;1.52;1.13;;;6.90;77.10;;;;;;4952255;28;20046;-89
2021/04/11 09:31:45;;;;;;;1.90;1.10;;;7.00;76.80;;;;;;4937049;29;20028;-91
2021/04/11 09:34:25;;;;;;;1.30;0.77;;;7.00;76.50;;;;;;4952852;28;20020;-90
2021/04/11 09:37:28;;;;;;;1.88;1.00;;;7.10;76.60;;;;;;4953631;28;20027;-89
2021/04/11 09:40:18;;;;;;;2.05;1.15;;;7.20;76.30;;;;;;4946351;29;20514;-91
2021/04/11 09:43:29;;;;;;;2.13;1.08;;;7.30;75.90;;;;;;4947507;29;20515;-90
2021/04/11 09:46:10;;;;;;;1.00;0.90;;;7.40;75.80;;;;;;4941323;29;20065;-92
2021/04/11 09:48:42;;;;;;;1.20;0.90;;;7.40;75.70;;;;;;4954888;28;20024;-93
2021/04/11 09:51:23;;;;;;;1.13;0.80;;;7.50;75.70;;;;;;4960361;28;20496;-93
2021/04/11 09:54:14;;;;;;;0.77;0.73;;;7.70;75.60;;;;;;4944103;29;20107;-94
2021/04/11 09:56:58;;;;;;;1.65;1.00;;;7.80;74.90;;;;;;4946416;28;20083;-94
2021/04/11 09:59:48;;;;;;;2.03;1.00;;;7.70;74.00;;;;;;4953253;28;20475;-92
2021/04/11 10:02:38;;;;;;;1.13;0.73;;;7.60;73.60;;;;;;4934503;28;21004;-93
2021/04/11 10:05:19;;;;;;;1.73;0.82;;;7.60;73.70;;;;;;4937400;29;20493;-91
2021/04/11 10:08:03;;;;;;;1.00;0.70;;;7.50;73.50;;;;;;4955770;28;20083;-94
2021/04/11 10:10:44;;;;;;;2.33;0.88;;;7.50;73.40;;;;;;4951525;29;20038;-94
2021/04/11 10:13:33;;;;;;;1.00;0.70;;;7.40;72.80;;;;;;4937746;29;20131;-93
2021/04/11 10:16:14;;;;;;;0.70;0.70;;;7.40;72.70;;;;;;4935279;28;20028;-88
2021/04/11 10:18:48;;;;;;;0.90;0.77;;;7.40;73.10;;;;;;4937855;29;20078;-88
2021/04/11 10:21:19;;;;;;;0.85;0.85;;;7.40;73.10;;;;;;4949839;28;20062;-88
2021/04/11 10:24:01;;;;;;;1.05;0.60;;;7.40;73.20;;;;;;4935111;28;20066;-88
2021/04/11 10:26:37;;;;;;;0.80;0.70;;;7.40;73.40;;;;;;4932502;29;20491;-86
2021/04/11 10:29:09;;;;;;;1.85;0.82;;;7.50;73.40;;;;;;4941472;29;20386;-86
2021/04/11 10:31:45;;;;;;;2.20;0.80;;;7.40;73.40;;;;;;4955202;28;20038;-87
2021/04/11 10:34:23;;;;;;;1.38;0.80;;;7.30;73.70;;;;;;4942184;28;20024;-85
2021/04/11 10:37:03;;;;;;;0.98;0.80;;;7.30;74.00;;;;;;4940124;29;20058;-86
2021/04/11 10:39:44;;;;;;;1.30;0.88;;;7.30;74.40;;;;;;4945588;29;20043;-86
2021/04/11 10:42:24;;;;;;;1.10;0.80;;;7.30;74.50;;;;;;4940813;29;20047;-87
2021/04/11 10:45:01;;;;;;;2.53;0.80;;;7.40;74.40;;;;;;4940278;28;20035;-85
2021/04/11 10:47:33;;;;;;;2.72;1.00;;;7.50;74.40;;;;;;4941284;29;20031;-89
2021/04/11 10:50:30;;;;;;;1.05;0.90;;;7.50;74.30;;;;;;4951198;28;20076;-87
2021/04/11 10:53:19;;;;;;;1.15;0.90;;;7.60;73.90;;;;;;4939838;29;20032;-87
2021/04/11 10:55:50;;;;;;;2.15;0.70;;;7.70;73.90;;;;;;4946183;28;20070;-87
2021/04/11 10:58:38;;;;;;;2.70;0.88;;;7.90;73.80;;;;;;4937460;29;20040;-89
2021/04/11 11:01:16;;;;;;;2.20;0.90;;;8.10;73.60;;;;;;4944788;29;20164;-88
2021/04/11 11:04:11;;;;;;;2.53;1.17;;;8.10;73.60;;;;;;4936706;28;20057;-88
2021/04/11 11:07:03;;;;;;;1.77;0.90;;;8.10;72.60;;;;;;4927217;29;20059;-87
2021/04/11 11:09:45;;;;;;;1.40;0.80;;;8.20;72.50;;;;;;4937940;29;20047;-87
2021/04/11 11:12:34;;;;;;;2.80;1.13;;;8.20;72.10;;;;;;4932165;28;20083;-85
2021/04/11 11:15:13;;;;;;;4.32;1.30;;;8.20;71.60;;;;;;4929698;29;20034;-86
2021/04/11 11:18:03;;;;;;;1.15;0.85;;;8.20;71.50;;;;;;4933632;29;20050;-86
2021/04/11 11:20:40;;;;;;;1.85;0.90;;;8.20;71.30;;;;;;4931857;29;20076;-87
2021/04/11 11:23:30;;;;;;;4.40;2.08;;;8.20;70.80;;;;;;4932335;29;20031;-88
2021/04/11 11:26:07;;;;;;;10.05;5.72;;;8.30;70.70;;;;;;4942808;29;20106;-86
2021/04/11 11:28:59;;;;;;;6.72;4.65;;;8.40;70.50;;;;;;4934038;29;20367;-85
2021/04/11 11:31:44;;;;;;;4.10;2.85;;;8.50;69.60;;;;;;4920225;29;20040;-84
2021/04/11 11:34:12;;;;;;;8.68;5.97;;;8.50;69.20;;;;;;4948943;28;20044;-83
2021/04/11 11:36:47;;;;;;;3.55;2.00;;;8.50;69.00;;;;;;4942060;29;20031;-84
2021/04/11 11:39:50;;;;;;;2.65;1.48;;;8.40;67.80;;;;;;4928015;29;20506;-84
2021/04/11 11:42:31;;;;;;;2.78;1.10;;;8.40;68.00;;;;;;4932388;29;20032;-86
2021/04/11 11:45:21;;;;;;;1.83;0.90;;;8.30;68.10;;;;;;4932715;29;20375;-86
2021/04/11 11:48:20;;;;;;;2.05;1.20;;;8.50;68.10;;;;;;4937339;29;20456;-85
2021/04/11 11:51:06;;;;;;;1.38;0.90;;;8.60;67.40;;;;;;4949180;28;20070;-85
2021/04/11 11:53:54;;;;;;;1.33;1.00;;;8.70;67.20;;;;;;4948127;28;20028;-87
2021/04/11 11:56:26;;;;;;;2.28;1.20;;;8.60;66.80;;;;;;4926644;29;20028;-87
2021/04/11 11:59:12;;;;;;;3.03;1.10;;;8.60;67.10;;;;;;4939793;29;20050;-87
2021/04/11 12:01:43;;;;;;;1.90;1.13;;;8.50;67.10;;;;;;4934531;29;20020;-84
2021/04/11 12:04:26;;;;;;;2.28;1.00;;;8.50;67.60;;;;;;4933944;29;20039;-92
2021/04/11 12:06:55;;;;;;;2.03;0.90;;;8.50;67.50;;;;;;4933948;28;20035;-90
2021/04/11 12:09:38;;;;;;;1.55;0.90;;;8.60;68.10;;;;;;4943245;29;20035;-90
2021/04/11 12:12:11;;;;;;;2.05;1.00;;;8.80;67.50;;;;;;4936856;29;20024;-86
2021/04/11 12:14:44;;;;;;;1.52;0.80;;;8.90;67.20;;;;;;4935642;28;20074;-87
2021/04/11 12:17:22;;;;;;;1.13;0.88;;;8.90;66.90;;;;;;4953908;28;20055;-86
2021/04/11 12:20:30;;;;;;;1.88;1.00;;;8.80;66.80;;;;;;4940257;29;20082;-88
2021/04/11 12:23:04;;;;;;;1.95;1.10;;;8.80;66.80;;;;;;4932193;28;20051;-88
2021/04/11 12:25:35;;;;;;;2.45;1.10;;;8.70;67.10;;;;;;4938118;29;20027;-90
2021/04/11 12:28:10;;;;;;;2.35;0.82;;;8.60;67.00;;;;;;4939670;29;20115;-93
2021/04/11 12:30:39;;;;;;;3.20;1.00;;;8.60;67.30;;;;;;4947407;29;20019;-93
2021/04/11 12:33:25;;;;;;;1.05;0.80;;;8.60;67.40;;;;;;4952976;28;20055;-94
2021/04/11 12:36:30;;;;;;;2.17;1.05;;;8.60;67.30;;;;;;4946428;29;20031;-96
2021/04/11 12:39:05;;;;;;;2.47;0.90;;;8.70;67.40;;;;;;4925396;29;20122;-94
2021/04/11 12:41:54;;;;;;;2.97;1.35;;;8.70;67.00;;;;;;4935617;29;20028;-95
2021/04/11 12:44:34;;;;;;;1.80;1.05;;;8.70;66.60;;;;;;4936997;29;20027;-95
2021/04/11 12:47:18;;;;;;;1.75;0.90;;;8.70;66.00;;;;;;4940368;29;20626;-94
2021/04/11 12:50:02;;;;;;;1.00;0.90;;;8.60;65.00;;;;;;4947838;29;20156;-93
2021/04/11 12:52:50;;;;;;;1.80;0.93;;;8.60;65.60;;;;;;4942811;29;20107;-93
2021/04/11 12:55:22;;;;;;;4.22;1.25;;;8.50;65.70;;;;;;4949504;28;20039;-92
2021/04/11 12:58:32;;;;;;;2.20;1.30;;;8.50;65.40;;;;;;4931512;29;20031;-93
2021/04/11 13:01:12;;;;;;;2.13;1.25;;;8.50;65.50;;;;;;4946719;28;20046;-92
2021/04/11 13:03:44;;;;;;;2.92;1.00;;;8.50;65.10;;;;;;4936847;29;20046;-92
2021/04/11 13:06:26;;;;;;;2.13;0.85;;;8.60;64.90;;;;;;4932318;29;20035;-93
2021/04/11 13:09:22;;;;;;;1.83;0.80;;;8.70;64.30;;;;;;4947493;28;20031;-92
2021/04/11 13:12:31;;;;;;;1.33;0.90;;;8.80;63.90;;;;;;4943503;28;20471;-91
2021/04/11 13:15:12;;;;;;;1.92;0.90;;;8.90;63.90;;;;;;4927553;29;20027;-92
2021/04/11 13:17:45;;;;;;;1.30;0.70;;;9.10;63.40;;;;;;4935344;29;20039;-93
2021/04/11 13:20:20;;;;;;;0.82;0.80;;;9.20;63.10;;;;;;4948849;29;20039;-92
2021/04/11 13:23:13;;;;;;;1.20;0.70;;;9.30;62.60;;;;;;4935436;29;20028;-92
2021/04/11 13:26:15;;;;;;;3.05;0.75;;;9.50;62.70;;;;;;4941819;29;20027;-92
2021/04/11 13:29:10;;;;;;;1.48;0.80;;;9.70;62.40;;;;;;4912930;28;20138;-93
2021/04/11 13:31:50;;;;;;;1.23;0.80;;;9.80;60.80;;;;;;4933142;29;20047;-90
2021/04/11 13:34:44;;;;;;;1.27;0.70;;;9.80;59.70;;;;;;4932104;29;20024;-87
2021/04/11 13:37:20;;;;;;;1.25;0.80;;;9.80;60.10;;;;;;4944001;29;20042;-95
2021/04/11 13:40:07;;;;;;;0.95;0.68;;;9.90;59.70;;;;;;4934497;28;20044;-94
2021/04/11 13:43:07;;;;;;;1.52;0.60;;;9.90;59.50;;;;;;4935591;29;20035;-94
2021/04/11 13:45:36;;;;;;;2.00;0.98;;;9.80;59.40;;;;;;4929877;29;20039;-95
2021/04/11 13:48:07;;;;;;;1.88;0.80;;;9.60;58.90;;;;;;4948104;28;20056;-95
2021/04/11 13:50:45;;;;;;;0.87;0.60;;;9.50;59.40;;;;;;4928085;28;20525;-94
2021/04/11 13:53:48;;;;;;;0.85;0.68;;;9.40;59.90;;;;;;4940290;28;20587;-93
2021/04/11 13:56:21;;;;;;;1.33;0.82;;;9.30;60.10;;;;;;4926600;29;20027;-96
2021/04/11 13:59:15;;;;;;;1.50;0.80;;;9.20;60.70;;;;;;4937604;28;20034;-96
2021/04/11 14:01:51;;;;;;;0.75;0.63;;;9.30;60.00;;;;;;4938498;29;20027;-95
2021/04/11 14:04:24;;;;;;;0.68;0.60;;;9.50;60.00;;;;;;4942129;29;20035;-96